createdAt,value
2023-05-05T00:00:01.774Z,0
2023-05-05T00:05:01.761Z,0
2023-05-05T00:10:01.797Z,0
2023-05-05T00:15:01.860Z,0
2023-05-05T00:20:01.800Z,0
2023-05-05T00:25:01.799Z,0
2023-05-05T00:30:01.762Z,0
2023-05-05T00:35:01.779Z,0
2023-05-05T00:40:01.859Z,0
2023-05-05T00:45:01.844Z,0
2023-05-05T00:50:01.813Z,0
2023-05-05T00:55:01.819Z,0
2023-05-05T01:00:01.876Z,0
2023-05-05T01:05:01.851Z,0
2023-05-05T01:10:15.502Z,0
2023-05-05T01:15:01.833Z,0
2023-05-05T01:20:01.827Z,0
2023-05-05T01:25:01.838Z,0
2023-05-05T01:30:01.858Z,0
2023-05-05T01:35:01.860Z,0
2023-05-05T01:40:01.891Z,0
2023-05-05T01:45:01.875Z,0
2023-05-05T01:50:01.871Z,0
2023-05-05T01:55:01.925Z,0
2023-05-05T02:00:01.856Z,0
2023-05-05T02:05:01.893Z,0
2023-05-05T02:10:01.827Z,0
2023-05-05T02:15:01.844Z,0
2023-05-05T02:20:01.929Z,0
2023-05-05T02:25:01.919Z,0
2023-05-05T02:30:01.902Z,0
2023-05-05T02:35:01.969Z,0
2023-05-05T02:40:01.923Z,0
2023-05-05T02:45:01.955Z,0
2023-05-05T02:50:01.904Z,0
2023-05-05T02:55:01.952Z,0
2023-05-05T03:00:01.997Z,0
2023-05-05T03:05:01.921Z,0
2023-05-05T03:10:02.220Z,0
2023-05-05T03:15:01.944Z,0
2023-05-05T03:20:03.707Z,0
2023-05-05T03:25:02.010Z,0
2023-05-05T03:30:01.990Z,0
2023-05-05T03:35:01.989Z,0.08844444444444445
2023-05-05T03:40:02.051Z,0.4006666666666666
2023-05-05T03:45:02.015Z,0.38480423280423276
2023-05-05T03:50:02.077Z,0.5318730158730159
2023-05-05T03:55:02.078Z,0.5290370370370371
2023-05-05T04:00:02.132Z,0.757005291005291
2023-05-05T04:05:02.169Z,0.928952380952381
2023-05-05T04:10:02.101Z,1.0962539682539683
2023-05-05T04:15:02.145Z,1.2794708994708994
2023-05-05T04:20:02.145Z,1.4570476190476191
2023-05-05T04:25:02.157Z,1.604846560846561
2023-05-05T04:30:02.114Z,1.7597566137566139
2023-05-05T04:35:02.212Z,1.9276296296296296
2023-05-05T04:40:02.192Z,2.124719576719577
2023-05-05T04:45:01.994Z,2.140867724867725
2023-05-05T04:50:02.016Z,2.3461058201058202
2023-05-05T04:55:02.064Z,2.452592592592593
2023-05-05T05:00:02.067Z,2.542962962962963
2023-05-05T05:05:02.029Z,2.6271428571428572
2023-05-05T05:10:02.065Z,2.7312275132275134
2023-05-05T05:15:02.095Z,2.834560846560846
2023-05-05T05:20:02.046Z,2.9575978835978836
2023-05-05T05:25:02.254Z,3.466677248677249
2023-05-05T05:30:02.129Z,4.014550264550264
2023-05-05T05:35:02.126Z,4.708084656084656
2023-05-05T05:40:02.138Z,5.584349206349207
2023-05-05T05:45:02.125Z,6.630158730158731
2023-05-05T05:50:02.072Z,7.935079365079366
2023-05-05T05:55:02.177Z,9.376031746031746
2023-05-05T06:00:02.442Z,11.026179894179894
2023-05-05T06:05:02.017Z,12.896603174603175
2023-05-05T06:10:11.200Z,15.229291005291007
2023-05-05T06:15:02.081Z,16.861470899470902
2023-05-05T06:20:02.132Z,19.003809523809526
2023-05-05T06:25:02.097Z,21.37430687830688
2023-05-05T06:30:02.114Z,23.709089947089947
2023-05-05T06:35:02.136Z,25.391354497354502
2023-05-05T06:40:02.156Z,29.484613756613758
2023-05-05T06:45:02.164Z,32.00274074074074
2023-05-05T06:50:02.158Z,33.26867724867725
2023-05-05T06:55:02.265Z,35.71266666666667
2023-05-05T07:00:02.154Z,39.00790476190477
2023-05-05T07:05:02.112Z,43.27080423280423
2023-05-05T07:10:02.210Z,48.149142857142856
2023-05-05T07:15:09.528Z,32.331417989417986
2023-05-05T07:20:02.136Z,43.734391534391534
2023-05-05T07:25:02.191Z,45.64067724867725
2023-05-05T07:30:03.332Z,33.88833862433862
2023-05-05T07:35:02.154Z,47.51169312169313
2023-05-05T07:40:02.251Z,50.38607407407408
2023-05-05T07:45:02.211Z,38.127746031746035
2023-05-05T07:50:02.251Z,36.3414708994709
2023-05-05T07:55:02.157Z,47.56918518518519
2023-05-05T08:00:02.128Z,56.98146031746032
2023-05-05T08:05:02.172Z,61.96957671957672
2023-05-05T08:10:02.210Z,62.80571428571429
2023-05-05T08:15:02.244Z,63.733174603174604
2023-05-05T08:20:02.213Z,64.14326984126984
2023-05-05T08:25:02.194Z,65.70748148148148
2023-05-05T08:30:02.230Z,64.74214814814815
2023-05-05T08:35:02.209Z,63.82303703703703
2023-05-05T08:40:02.253Z,66.46566137566138
2023-05-05T08:45:02.335Z,68.13042328042329
2023-05-05T08:50:02.264Z,71.7321798941799
2023-05-05T09:00:02.292Z,73.4528783068783
2023-05-05T09:05:02.226Z,54.12476190476191
2023-05-05T09:10:02.308Z,45.135470899470896
2023-05-05T09:15:02.263Z,40.21433862433862
2023-05-05T09:20:02.309Z,40.531291005291
2023-05-05T09:25:02.578Z,49.64614814814814
2023-05-05T09:30:02.365Z,58.673968253968255
2023-05-05T09:35:02.396Z,46.78866666666667
2023-05-05T09:40:02.459Z,50.543693121693124
2023-05-05T09:45:02.499Z,49.309788359788364
2023-05-05T09:50:02.403Z,56.14469841269841
2023-05-05T09:55:02.265Z,47.7133544973545
2023-05-05T10:00:02.443Z,59.19921693121694
2023-05-05T10:05:02.569Z,56.9602328042328
2023-05-05T10:10:02.419Z,58.97549206349206
2023-05-05T10:15:02.293Z,57.24991534391535
2023-05-05T10:20:02.272Z,56.99885714285714
2023-05-05T10:25:02.297Z,57.40959788359788
2023-05-05T10:30:02.288Z,59.31034920634921
2023-05-05T10:35:02.332Z,60.021746031746034
2023-05-05T10:40:02.356Z,59.58392592592593
2023-05-05T10:45:02.372Z,62.8555238095238
2023-05-05T10:50:02.384Z,64.56658201058202
2023-05-05T10:55:02.338Z,65.27002116402116
2023-05-05T11:00:02.311Z,58.89874074074075
2023-05-05T11:05:02.478Z,59.5256507936508
2023-05-05T11:10:02.433Z,54.439915343915345
2023-05-05T11:15:02.487Z,50.09795767195768
2023-05-05T11:20:02.505Z,50.47637037037037
2023-05-05T11:25:02.509Z,50.30273015873016
2023-05-05T11:30:02.413Z,53.558634920634915
2023-05-05T11:35:02.340Z,53.28356613756614
2023-05-05T11:40:02.400Z,55.71643386243387
2023-05-05T11:45:02.443Z,49.78831746031746
2023-05-05T11:50:02.364Z,52.75565079365079
2023-05-05T11:55:02.386Z,52.59946031746032
2023-05-05T12:00:02.400Z,65.71274074074074
2023-05-05T12:05:02.415Z,63.16286772486773
2023-05-05T12:10:02.490Z,72.7429947089947
2023-05-05T12:15:02.575Z,71.411417989418
2023-05-05T12:20:02.418Z,60.745111111111115
2023-05-05T12:25:02.441Z,54.4098306878307
2023-05-05T12:30:02.368Z,52.65630687830688
2023-05-05T12:35:02.465Z,41.66575661375661
2023-05-05T12:40:02.533Z,38.75607407407408
2023-05-05T12:45:02.569Z,41.12262433862434
2023-05-05T12:50:02.750Z,48.22319576719576
2023-05-05T12:55:02.807Z,47.402042328042334
2023-05-05T13:00:02.631Z,42.631005291005295
2023-05-05T13:05:02.405Z,55.961153439153435
2023-05-05T13:10:02.626Z,65.63291005291005
2023-05-05T13:15:02.488Z,67.34519576719576
2023-05-05T13:20:02.483Z,54.15495238095238
2023-05-05T13:25:02.433Z,61.96560846560847
2023-05-05T13:30:02.502Z,57.07713227513227
2023-05-05T13:35:02.508Z,56.38258201058201
2023-05-05T13:40:02.465Z,61.75217989417989
2023-05-05T13:45:02.458Z,47.397640211640216
2023-05-05T13:50:02.462Z,54.3778835978836
2023-05-05T13:55:02.534Z,70.1768253968254
2023-05-05T14:00:02.516Z,53.07258201058202
2023-05-05T14:05:02.517Z,33.79638095238096
2023-05-05T14:10:02.543Z,41.65467724867725
2023-05-05T14:15:02.627Z,47.71802116402116
2023-05-05T14:20:02.722Z,47.62206349206349
2023-05-05T14:25:02.741Z,35.24883597883598
2023-05-05T14:30:02.670Z,34.58835978835978
2023-05-05T14:35:02.519Z,46.35302645502645
2023-05-05T14:40:04.966Z,45.87693121693122
2023-05-05T14:45:02.481Z,38.45339682539682
2023-05-05T14:50:02.589Z,33.95133333333333
2023-05-05T14:55:02.539Z,39.59161904761905
2023-05-05T15:00:02.547Z,43.70160846560846
2023-05-05T15:05:02.514Z,42.74385185185185
2023-05-05T15:10:02.568Z,35.35326984126984
2023-05-05T15:15:02.655Z,35.90701587301587
2023-05-05T15:20:02.565Z,45.540222222222226
2023-05-05T15:25:02.561Z,54.40038095238096
2023-05-05T15:30:02.566Z,47.423132275132275
2023-05-05T15:35:02.578Z,49.38035978835979
2023-05-05T15:40:02.835Z,27.222455026455027
2023-05-05T15:45:02.708Z,22.33031746031746
2023-05-05T15:50:02.894Z,40.30192592592593
2023-05-05T15:55:02.741Z,42.41941798941799
2023-05-05T16:00:02.853Z,43.115968253968255
2023-05-05T16:05:02.719Z,40.04871957671958
2023-05-05T16:10:02.782Z,27.730867724867725
2023-05-05T16:15:02.639Z,22.09045502645503
2023-05-05T16:20:02.581Z,20.912634920634922
2023-05-05T16:25:02.618Z,17.474433862433862
2023-05-05T16:30:03.106Z,14.50657142857143
2023-05-05T16:35:02.641Z,12.576264550264552
2023-05-05T16:40:02.622Z,12.190687830687832
2023-05-05T16:45:02.654Z,11.58362962962963
2023-05-05T16:50:02.629Z,10.190973544973545
2023-05-05T16:55:02.679Z,8.48042328042328
2023-05-05T17:00:02.608Z,7.382423280423281
2023-05-05T17:05:02.732Z,6.692328042328042
2023-05-05T17:10:02.793Z,6.228582010582011
2023-05-05T17:15:02.682Z,5.999280423280424
2023-05-05T17:20:02.676Z,6.649174603174603
2023-05-05T17:25:02.682Z,7.636592592592593
2023-05-05T17:30:02.654Z,7.840328042328043
2023-05-05T17:35:02.697Z,7.502243386243386
2023-05-05T17:40:02.815Z,7.593640211640213
2023-05-05T17:45:02.773Z,6.147068783068783
2023-05-05T17:50:02.889Z,5.1328148148148145
2023-05-05T17:55:02.826Z,4.384455026455027
2023-05-05T18:00:02.939Z,3.608846560846561
2023-05-05T18:05:02.832Z,2.794952380952381
2023-05-05T18:10:02.790Z,2.100941798941799
2023-05-05T18:15:02.732Z,1.499936507936508
2023-05-05T18:20:02.747Z,1.000888888888889
2023-05-05T18:25:02.694Z,0.5306031746031746
2023-05-05T18:30:02.799Z,0.22208465608465608
2023-05-05T18:35:02.783Z,0.2883280423280423
2023-05-05T18:40:02.760Z,0.18219047619047618
2023-05-05T18:45:02.854Z,0
2023-05-05T18:50:02.801Z,0
2023-05-05T18:55:02.739Z,0
2023-05-05T19:00:02.725Z,0
2023-05-05T19:05:02.913Z,0
2023-05-05T19:10:02.884Z,0
2023-05-05T19:15:02.879Z,0
2023-05-05T19:20:02.812Z,0
2023-05-05T19:25:02.754Z,0
2023-05-05T19:30:02.760Z,0
2023-05-05T19:35:02.773Z,0
2023-05-05T19:40:02.851Z,0
2023-05-05T19:45:02.918Z,0
2023-05-05T19:50:03.083Z,0
2023-05-05T19:55:02.940Z,0
2023-05-05T20:00:02.973Z,0
2023-05-05T20:05:03.063Z,0
2023-05-05T20:10:03.056Z,0
2023-05-05T20:15:02.877Z,0
2023-05-05T20:20:02.780Z,0
2023-05-05T20:25:02.828Z,0
2023-05-05T20:30:02.870Z,0
2023-05-05T20:35:02.792Z,0
2023-05-05T20:40:02.845Z,0
2023-05-05T20:45:02.846Z,0
2023-05-05T20:50:02.838Z,0
2023-05-05T20:55:02.853Z,0
2023-05-05T21:00:02.917Z,0
2023-05-05T21:05:02.865Z,0
2023-05-05T21:10:02.908Z,0
2023-05-05T21:15:02.889Z,0
2023-05-05T21:20:02.934Z,0
2023-05-05T21:25:02.884Z,0
2023-05-05T21:30:02.995Z,0
2023-05-05T21:35:02.865Z,0
2023-05-05T21:40:02.931Z,0
2023-05-05T21:45:02.888Z,0
2023-05-05T21:50:02.964Z,0
2023-05-05T21:55:02.921Z,0
2023-05-05T22:00:02.888Z,0
2023-05-05T22:05:02.920Z,0
2023-05-05T22:10:03.076Z,0
2023-05-05T22:15:03.083Z,0
2023-05-05T22:20:03.078Z,0
2023-05-05T22:25:02.920Z,0
2023-05-05T22:30:02.927Z,0
2023-05-05T22:35:02.991Z,0
2023-05-05T22:40:02.999Z,0
2023-05-05T22:45:02.941Z,0
2023-05-05T22:50:02.966Z,0
2023-05-05T22:55:02.952Z,0
2023-05-05T23:00:02.962Z,0
2023-05-05T23:05:02.936Z,0
2023-05-05T23:10:03.011Z,0
2023-05-05T23:15:03.094Z,0
2023-05-05T23:20:02.982Z,0
2023-05-05T23:25:03.092Z,0
2023-05-05T23:30:03.166Z,0
2023-05-05T23:35:03.116Z,0
2023-05-05T23:40:02.986Z,0
2023-05-05T23:45:03.033Z,0
2023-05-05T23:50:03.077Z,0
2023-05-05T23:55:03.156Z,0
